createdAt,value
2023-11-30T00:00:16.472Z,2.50
2023-11-30T00:02:43.608Z,2.50
2023-11-30T00:05:10.787Z,2.50
2023-11-30T00:07:37.614Z,2.50
2023-11-30T00:10:04.793Z,2.50
2023-11-30T00:12:31.975Z,2.50
2023-11-30T00:14:58.854Z,2.50
2023-11-30T00:17:26.054Z,2.50
2023-11-30T00:19:52.879Z,2.50
2023-11-30T00:22:23.516Z,2.60
2023-11-30T00:24:50.234Z,2.50
2023-11-30T00:27:17.151Z,2.50
2023-11-30T00:35:27.140Z,2.50
2023-11-30T00:37:53.901Z,2.50
2023-11-30T00:40:40.920Z,2.60
2023-11-30T00:43:33.248Z,2.60
2023-11-30T00:46:07.020Z,2.70
2023-11-30T00:48:36.671Z,2.60
2023-11-30T00:51:04.723Z,2.60
2023-11-30T00:53:31.759Z,2.60
2023-11-30T00:55:58.646Z,2.60
2023-11-30T00:58:25.611Z,2.70
2023-11-30T01:00:52.552Z,2.70
2023-11-30T01:03:19.398Z,2.70
2023-11-30T01:05:46.858Z,2.60
2023-11-30T01:08:14.222Z,2.60
2023-11-30T01:10:42.269Z,2.70
2023-11-30T01:13:09.693Z,2.60
2023-11-30T01:15:36.754Z,2.60
2023-11-30T01:18:06.805Z,2.60
2023-11-30T01:20:34.151Z,2.60
2023-11-30T01:23:01.129Z,2.60
2023-11-30T01:25:28.005Z,2.60
2023-11-30T01:27:54.811Z,2.60
2023-11-30T01:30:25.138Z,2.60
2023-11-30T01:32:52.419Z,2.60
2023-11-30T01:35:19.266Z,2.60
2023-11-30T01:37:46.343Z,2.60
2023-11-30T01:40:13.170Z,2.60
2023-11-30T01:42:40.104Z,2.60
2023-11-30T01:45:07.819Z,2.60
2023-11-30T01:47:34.923Z,2.60
2023-11-30T01:50:02.546Z,2.60
2023-11-30T01:52:31.979Z,2.70
2023-11-30T01:55:01.500Z,2.70
2023-11-30T01:57:29.103Z,2.60
2023-11-30T01:59:57.182Z,2.70
2023-11-30T02:02:24.609Z,2.50
2023-11-30T02:04:54.129Z,2.50
2023-11-30T02:07:21.564Z,2.50
2023-11-30T02:09:48.738Z,2.40
2023-11-30T02:12:15.559Z,2.40
2023-11-30T02:14:42.702Z,2.40
2023-11-30T02:17:09.498Z,2.40
2023-11-30T02:19:36.377Z,2.40
2023-11-30T02:22:03.288Z,2.30
2023-11-30T02:24:30.462Z,2.30
2023-11-30T02:26:57.301Z,2.30
2023-11-30T02:29:24.360Z,2.40
2023-11-30T02:31:51.098Z,2.30
2023-11-30T02:34:18.131Z,2.30
2023-11-30T02:36:45.228Z,2.30
2023-11-30T02:39:12.191Z,2.30
2023-11-30T02:41:39.091Z,2.30
2023-11-30T02:44:06.044Z,2.30
2023-11-30T02:46:33.042Z,2.30
2023-11-30T02:49:00.080Z,2.30
2023-11-30T02:51:27.417Z,2.30
2023-11-30T02:53:54.428Z,2.30
2023-11-30T02:56:21.233Z,2.40
2023-11-30T02:58:48.434Z,2.50
2023-11-30T03:01:15.501Z,2.50
2023-11-30T03:03:44.105Z,2.50
2023-11-30T03:06:12.666Z,2.50
2023-11-30T03:08:39.713Z,2.40
2023-11-30T03:11:06.749Z,2.50
2023-11-30T03:13:33.481Z,2.50
2023-11-30T03:16:00.600Z,2.50
2023-11-30T03:18:27.754Z,2.50
2023-11-30T03:20:54.820Z,2.50
2023-11-30T03:23:22.159Z,2.50
2023-11-30T03:25:49.112Z,2.50
2023-11-30T03:28:16.008Z,2.50
2023-11-30T03:30:43.300Z,2.60
2023-11-30T03:33:10.461Z,2.60
2023-11-30T03:35:37.398Z,2.60
2023-11-30T03:38:04.474Z,2.60
2023-11-30T03:40:31.270Z,2.60
2023-11-30T03:42:58.480Z,2.60
2023-11-30T03:45:25.553Z,2.60
2023-11-30T03:47:52.596Z,2.70
2023-11-30T03:50:19.861Z,2.70
2023-11-30T03:52:46.954Z,2.70
2023-11-30T03:55:13.767Z,2.70
2023-11-30T03:57:40.836Z,2.70
2023-11-30T04:00:13.320Z,2.70
2023-11-30T04:02:43.891Z,2.80
2023-11-30T04:05:14.799Z,2.80
2023-11-30T04:07:41.747Z,2.70
2023-11-30T04:10:10.844Z,2.70
2023-11-30T04:12:37.969Z,2.70
2023-11-30T04:15:06.589Z,2.70
2023-11-30T04:17:35.524Z,2.70
2023-11-30T04:20:02.660Z,2.70
2023-11-30T04:22:30.051Z,2.80
2023-11-30T04:24:56.777Z,2.70
2023-11-30T04:27:23.768Z,2.60
2023-11-30T04:29:50.570Z,2.60
2023-11-30T04:32:17.569Z,2.50
2023-11-30T04:34:44.647Z,2.50
2023-11-30T04:37:11.654Z,2.60
2023-11-30T04:39:38.937Z,2.60
2023-11-30T04:42:08.805Z,2.50
2023-11-30T04:44:35.730Z,2.60
2023-11-30T04:47:02.469Z,2.60
2023-11-30T04:49:29.403Z,2.60
2023-11-30T04:52:21.333Z,2.60
2023-11-30T04:54:48.496Z,2.70
2023-11-30T04:57:15.683Z,2.70
2023-11-30T04:59:42.565Z,2.60
2023-11-30T05:02:10.083Z,2.60
2023-11-30T05:04:38.359Z,2.70
2023-11-30T05:07:05.437Z,2.60
2023-11-30T05:09:32.381Z,2.70
2023-11-30T05:11:59.700Z,2.70
2023-11-30T05:14:26.761Z,2.70
2023-11-30T05:16:53.505Z,2.80
2023-11-30T05:19:20.556Z,2.80
2023-11-30T05:21:47.553Z,2.80
2023-11-30T05:24:14.512Z,2.70
2023-11-30T05:26:41.335Z,2.70
2023-11-30T05:29:08.495Z,2.80
2023-11-30T05:31:35.402Z,2.80
2023-11-30T05:34:03.549Z,2.80
2023-11-30T05:36:30.711Z,2.80
2023-11-30T05:38:57.580Z,2.90
2023-11-30T05:41:24.404Z,2.90
2023-11-30T05:43:54.313Z,2.80
2023-11-30T05:46:21.280Z,2.90
2023-11-30T05:48:48.319Z,2.90
2023-11-30T05:51:15.443Z,2.90
2023-11-30T05:53:42.286Z,2.90
2023-11-30T05:56:09.471Z,2.90
2023-11-30T05:58:36.957Z,2.90
2023-11-30T06:01:04.134Z,2.90
2023-11-30T06:03:31.132Z,2.90
2023-11-30T06:05:58.149Z,2.90
2023-11-30T06:08:28.398Z,2.90
2023-11-30T06:10:55.162Z,2.90
2023-11-30T06:13:25.780Z,3.00
2023-11-30T06:15:53.979Z,3.00
2023-11-30T06:18:21.038Z,3.00
2023-11-30T06:20:48.004Z,3.00
2023-11-30T06:23:15.013Z,3.00
2023-11-30T06:25:43.401Z,3.00
2023-11-30T06:28:10.725Z,2.90
2023-11-30T06:30:38.260Z,3.00
2023-11-30T06:33:05.167Z,3.00
2023-11-30T06:35:32.179Z,3.00
2023-11-30T06:37:59.482Z,3.00
2023-11-30T06:40:26.181Z,3.00
2023-11-30T06:42:53.223Z,3.00
2023-11-30T06:45:20.711Z,3.00
2023-11-30T06:47:47.481Z,3.10
2023-11-30T06:50:14.549Z,3.00
2023-11-30T06:52:41.380Z,3.00
2023-11-30T06:55:08.628Z,3.00
2023-11-30T06:57:36.710Z,3.00
2023-11-30T07:00:05.272Z,3.00
2023-11-30T07:02:32.709Z,3.00
2023-11-30T07:04:59.687Z,3.00
2023-11-30T07:07:33.807Z,3.00
2023-11-30T07:10:03.215Z,3.00
2023-11-30T07:12:30.159Z,3.00
2023-11-30T07:14:57.214Z,3.00
2023-11-30T07:17:25.160Z,3.10
2023-11-30T07:19:54.061Z,3.00
2023-11-30T07:22:21.960Z,3.10
2023-11-30T07:24:49.250Z,3.10
2023-11-30T07:27:20.438Z,3.10
2023-11-30T07:29:48.350Z,3.10
2023-11-30T07:32:16.815Z,3.10
2023-11-30T07:34:45.587Z,3.10
2023-11-30T07:37:16.039Z,3.10
2023-11-30T07:39:43.271Z,3.00
2023-11-30T07:42:10.184Z,2.90
2023-11-30T07:44:37.111Z,2.80
2023-11-30T07:47:03.942Z,2.70
2023-11-30T07:49:30.853Z,2.70
2023-11-30T07:51:57.742Z,2.70
2023-11-30T07:54:25.717Z,2.80
2023-11-30T07:56:52.836Z,2.70
2023-11-30T07:59:19.884Z,2.80
2023-11-30T08:01:47.574Z,2.70
2023-11-30T08:04:14.683Z,2.80
2023-11-30T08:06:44.587Z,2.90
2023-11-30T08:09:11.715Z,3.00
2023-11-30T08:11:39.649Z,3.10
2023-11-30T08:14:06.863Z,3.10
2023-11-30T08:16:34.853Z,3.10
2023-11-30T08:19:02.403Z,3.30
2023-11-30T08:21:29.349Z,3.40
2023-11-30T08:23:56.311Z,3.60
2023-11-30T08:26:23.536Z,3.70
2023-11-30T08:28:53.705Z,3.80
2023-11-30T08:31:20.845Z,3.90
2023-11-30T08:33:48.552Z,4.00
2023-11-30T08:36:15.708Z,4.10
2023-11-30T08:38:42.539Z,4.20
2023-11-30T08:41:09.780Z,4.20
2023-11-30T08:43:36.755Z,4.10
2023-11-30T08:46:03.771Z,4.20
2023-11-30T08:48:31.413Z,4.20
2023-11-30T08:50:58.244Z,4.20
2023-11-30T08:53:25.506Z,4.30
2023-11-30T08:55:52.386Z,4.50
2023-11-30T08:58:19.324Z,4.60
2023-11-30T09:00:46.140Z,4.70
2023-11-30T09:03:13.772Z,4.90
2023-11-30T09:05:42.056Z,5.10
2023-11-30T09:08:09.187Z,5.20
2023-11-30T09:10:36.492Z,5.20
2023-11-30T09:13:04.464Z,5.10
2023-11-30T09:15:32.978Z,5.00
2023-11-30T09:18:02.373Z,4.90
2023-11-30T09:20:29.346Z,4.80
2023-11-30T09:22:56.339Z,4.90
2023-11-30T09:25:23.712Z,4.80
2023-11-30T09:27:50.574Z,4.80
2023-11-30T09:30:17.988Z,4.80
2023-11-30T09:32:45.107Z,4.80
2023-11-30T09:35:12.648Z,4.70
2023-11-30T09:37:40.098Z,4.70
2023-11-30T09:40:07.637Z,4.70
2023-11-30T09:42:34.917Z,4.70
2023-11-30T09:45:05.608Z,4.60
2023-11-30T09:47:33.133Z,4.60
2023-11-30T09:50:02.136Z,4.60
2023-11-30T09:52:30.171Z,4.70
2023-11-30T09:54:58.151Z,4.60
2023-11-30T09:57:25.634Z,4.60
2023-11-30T09:59:53.890Z,4.60
2023-11-30T10:02:24.507Z,4.60
2023-11-30T10:04:51.602Z,4.50
2023-11-30T10:07:19.149Z,4.70
2023-11-30T10:09:46.768Z,4.80
2023-11-30T10:12:13.633Z,4.80
2023-11-30T10:14:40.480Z,4.80
2023-11-30T10:17:07.778Z,4.80
2023-11-30T10:19:35.108Z,4.70
2023-11-30T10:22:02.035Z,4.60
2023-11-30T10:24:29.190Z,4.40
2023-11-30T10:27:00.524Z,4.30
2023-11-30T10:29:32.188Z,4.30
2023-11-30T10:32:04.203Z,4.40
2023-11-30T10:34:44.154Z,4.50
2023-11-30T10:37:11.374Z,4.50
2023-11-30T10:39:43.523Z,4.60
2023-11-30T10:42:14.240Z,4.70
2023-11-30T10:44:44.380Z,4.70
2023-11-30T10:47:11.773Z,4.80
2023-11-30T10:49:39.888Z,4.90
2023-11-30T10:52:08.597Z,5.00
2023-11-30T10:54:58.930Z,5.00
2023-11-30T10:57:26.713Z,5.20
2023-11-30T11:00:00.424Z,5.20
2023-11-30T11:02:46.795Z,5.20
2023-11-30T11:05:15.705Z,5.40
2023-11-30T11:07:49.564Z,5.40
2023-11-30T11:10:32.057Z,5.30
2023-11-30T11:13:00.878Z,5.30
2023-11-30T11:15:33.262Z,5.30
2023-11-30T11:18:05.482Z,5.30
2023-11-30T11:20:33.922Z,5.30
2023-11-30T11:23:11.238Z,5.40
2023-11-30T11:25:42.429Z,5.40
2023-11-30T11:28:09.499Z,5.50
2023-11-30T11:30:51.286Z,5.60
2023-11-30T11:33:20.353Z,5.70
2023-11-30T11:35:48.684Z,5.90
2023-11-30T11:38:15.548Z,6.10
2023-11-30T11:40:43.087Z,6.50
2023-11-30T11:43:10.270Z,6.80
2023-11-30T11:45:38.700Z,7.00
2023-11-30T11:48:06.015Z,7.10
2023-11-30T11:50:33.171Z,7.20
2023-11-30T11:53:04.910Z,7.60
2023-11-30T11:55:32.281Z,7.30
2023-11-30T11:57:59.601Z,7.20
2023-11-30T12:00:27.077Z,7.20
2023-11-30T12:03:08.869Z,7.20
2023-11-30T12:08:39.377Z,6.80
2023-11-30T12:11:07.164Z,6.70
2023-11-30T12:13:39.113Z,6.70
2023-11-30T12:16:06.938Z,6.70
2023-11-30T12:18:34.225Z,6.90
2023-11-30T12:21:01.277Z,7.00
2023-11-30T12:23:28.573Z,7.10
2023-11-30T12:25:57.455Z,7.20
2023-11-30T12:28:24.354Z,7.30
2023-11-30T12:30:51.169Z,7.20
2023-11-30T12:33:18.108Z,7.10
2023-11-30T12:35:44.944Z,7.10
2023-11-30T12:38:14.707Z,7.20
2023-11-30T12:40:41.972Z,7.50
2023-11-30T12:43:08.997Z,8.00
2023-11-30T12:45:35.788Z,8.40
2023-11-30T12:48:03.009Z,8.40
2023-11-30T12:50:30.035Z,8.40
2023-11-30T12:52:57.063Z,8.40
2023-11-30T12:55:24.262Z,8.20
2023-11-30T12:57:51.524Z,8.10
2023-11-30T13:00:21.982Z,7.90
2023-11-30T13:02:50.151Z,7.70
2023-11-30T13:05:17.563Z,7.60
2023-11-30T13:07:44.657Z,7.50
2023-11-30T13:10:12.967Z,7.30
2023-11-30T13:12:41.913Z,7.40
2023-11-30T13:15:12.068Z,7.30
2023-11-30T13:17:39.746Z,7.30
2023-11-30T13:20:09.412Z,7.20
2023-11-30T13:22:36.825Z,7.20
2023-11-30T13:25:05.121Z,7.20
2023-11-30T13:27:33.767Z,7.10
2023-11-30T13:30:01.307Z,7.40
2023-11-30T13:32:31.190Z,7.60
2023-11-30T13:34:58.252Z,7.70
2023-11-30T13:37:25.729Z,7.70
2023-11-30T13:39:52.796Z,7.70
2023-11-30T13:42:19.832Z,7.70
2023-11-30T13:44:46.853Z,7.80
2023-11-30T13:47:13.675Z,7.90
2023-11-30T13:49:40.673Z,7.90
2023-11-30T13:52:08.538Z,7.90
2023-11-30T13:54:35.672Z,8.00
2023-11-30T13:57:02.644Z,8.00
2023-11-30T13:59:29.417Z,8.20
2023-11-30T14:01:57.249Z,8.30
2023-11-30T14:04:24.419Z,8.50
2023-11-30T14:06:51.608Z,8.60
2023-11-30T14:09:27.253Z,8.60
2023-11-30T14:11:57.578Z,8.90
2023-11-30T14:14:24.979Z,9.10
2023-11-30T14:16:52.183Z,9.20
2023-11-30T14:19:19.675Z,9.30
2023-11-30T14:21:46.668Z,9.40
2023-11-30T14:24:13.918Z,9.30
2023-11-30T14:26:40.872Z,8.90
2023-11-30T14:29:08.135Z,8.50
2023-11-30T14:31:35.110Z,7.90
2023-11-30T14:34:02.398Z,7.30
2023-11-30T14:36:30.897Z,7.00
2023-11-30T14:38:59.098Z,6.70
2023-11-30T14:41:26.322Z,6.50
2023-11-30T14:43:53.190Z,6.30
2023-11-30T14:46:20.480Z,6.30
2023-11-30T14:48:47.499Z,6.20
2023-11-30T14:51:14.633Z,6.10
2023-11-30T14:53:41.912Z,6.10
2023-11-30T14:56:09.422Z,5.90
2023-11-30T14:58:36.458Z,5.90
2023-11-30T15:01:04.276Z,5.90
2023-11-30T15:03:32.862Z,5.90
2023-11-30T15:05:59.984Z,6.00
2023-11-30T15:08:26.962Z,6.00
2023-11-30T15:10:54.123Z,6.00
2023-11-30T15:13:21.559Z,6.00
2023-11-30T15:15:48.455Z,5.80
2023-11-30T15:18:15.316Z,5.70
2023-11-30T15:20:45.064Z,5.60
2023-11-30T15:23:11.945Z,5.40
2023-11-30T15:25:40.762Z,5.30
2023-11-30T15:28:11.138Z,5.20
2023-11-30T15:30:39.285Z,5.10
2023-11-30T15:33:07.425Z,5.00
2023-11-30T15:35:35.705Z,5.00
2023-11-30T15:38:03.802Z,4.90
2023-11-30T15:40:30.941Z,4.80
2023-11-30T15:42:59.049Z,4.80
2023-11-30T15:45:27.433Z,4.80
2023-11-30T15:47:54.638Z,4.70
2023-11-30T15:50:21.886Z,4.60
2023-11-30T15:52:48.908Z,4.60
2023-11-30T15:55:16.224Z,4.50
2023-11-30T15:57:45.883Z,4.50
2023-11-30T16:00:13.886Z,4.40
2023-11-30T16:02:43.001Z,4.40
2023-11-30T16:05:10.120Z,4.40
2023-11-30T16:07:37.401Z,4.30
2023-11-30T16:10:05.878Z,4.30
2023-11-30T16:12:32.947Z,4.30
2023-11-30T16:14:59.901Z,4.20
2023-11-30T16:17:26.753Z,4.10
2023-11-30T16:19:53.858Z,4.10
2023-11-30T16:22:21.006Z,4.10
2023-11-30T16:24:48.131Z,4.20
2023-11-30T16:27:15.836Z,4.00
2023-11-30T16:29:43.261Z,4.10
2023-11-30T16:32:11.970Z,4.00
2023-11-30T16:34:38.962Z,4.00
2023-11-30T16:37:06.478Z,3.90
2023-11-30T16:39:33.275Z,3.90
2023-11-30T16:42:00.343Z,3.80
2023-11-30T16:44:27.848Z,3.80
2023-11-30T16:46:55.639Z,3.90
2023-11-30T16:49:22.699Z,3.80
2023-11-30T16:51:55.339Z,3.80
2023-11-30T16:54:26.669Z,3.80
2023-11-30T16:56:53.589Z,3.90
2023-11-30T16:59:20.702Z,4.00
2023-11-30T17:01:49.078Z,4.00
2023-11-30T17:04:16.016Z,3.80
2023-11-30T17:06:42.934Z,3.70
2023-11-30T17:09:09.976Z,3.70
2023-11-30T17:11:37.126Z,3.70
2023-11-30T17:14:04.173Z,3.60
2023-11-30T17:16:31.540Z,3.60
2023-11-30T17:18:58.888Z,3.60
2023-11-30T17:21:26.012Z,3.60
2023-11-30T17:23:52.855Z,3.50
2023-11-30T17:26:19.891Z,3.50
2023-11-30T17:28:46.823Z,3.40
2023-11-30T17:31:13.817Z,3.30
2023-11-30T17:33:41.480Z,3.20
2023-11-30T17:36:09.337Z,3.10
2023-11-30T17:38:37.538Z,3.00
2023-11-30T17:41:04.676Z,2.90
2023-11-30T17:43:31.613Z,2.90
2023-11-30T17:45:58.817Z,2.90
2023-11-30T17:48:25.949Z,2.80
2023-11-30T17:50:53.265Z,2.80
2023-11-30T17:53:20.117Z,2.80
2023-11-30T17:55:47.891Z,2.70
2023-11-30T17:58:14.741Z,2.70
2023-11-30T18:00:41.579Z,2.70
2023-11-30T18:03:08.736Z,2.70
2023-11-30T18:05:35.809Z,2.70
2023-11-30T18:08:02.668Z,2.60
2023-11-30T18:10:30.403Z,2.60
2023-11-30T18:12:57.772Z,2.70
2023-11-30T18:15:24.670Z,2.60
2023-11-30T18:17:52.103Z,2.60
2023-11-30T18:20:19.028Z,2.60
2023-11-30T18:22:46.041Z,2.50
2023-11-30T18:25:13.493Z,2.50
2023-11-30T18:27:40.308Z,2.40
2023-11-30T18:30:08.603Z,2.40
2023-11-30T18:32:35.675Z,2.40
2023-11-30T18:35:05.343Z,2.40
2023-11-30T18:37:32.988Z,2.40
2023-11-30T18:40:01.708Z,2.40
2023-11-30T18:42:28.746Z,2.50
2023-11-30T18:44:56.656Z,2.50
2023-11-30T18:47:23.537Z,2.50
2023-11-30T18:49:51.278Z,2.60
2023-11-30T18:52:18.140Z,2.60
2023-11-30T18:54:48.917Z,2.60
2023-11-30T18:57:15.870Z,2.70
2023-11-30T18:59:43.109Z,2.70
2023-11-30T19:02:10.296Z,2.70
2023-11-30T19:04:39.901Z,2.70
2023-11-30T19:07:07.767Z,2.70
2023-11-30T19:09:34.818Z,2.70
2023-11-30T19:12:01.802Z,2.70
2023-11-30T19:14:29.551Z,2.70
2023-11-30T19:16:56.799Z,2.70
2023-11-30T19:19:23.957Z,2.70
2023-11-30T19:21:51.122Z,2.70
2023-11-30T19:24:20.968Z,2.70
2023-11-30T19:26:47.925Z,2.60
2023-11-30T19:29:14.770Z,2.70
2023-11-30T19:31:41.788Z,2.70
2023-11-30T19:34:10.737Z,2.60
2023-11-30T19:36:39.997Z,2.60
2023-11-30T19:39:07.071Z,2.70
2023-11-30T19:41:33.893Z,2.60
2023-11-30T19:44:00.820Z,2.60
2023-11-30T19:46:29.806Z,2.60
2023-11-30T19:48:56.821Z,2.50
2023-11-30T19:51:24.286Z,2.40
2023-11-30T19:53:53.490Z,2.40
2023-11-30T19:56:21.584Z,2.40
2023-11-30T19:58:48.657Z,2.30
2023-11-30T20:01:22.608Z,2.30
2023-11-30T20:03:50.010Z,2.40
2023-11-30T20:06:17.604Z,2.30
2023-11-30T20:08:44.945Z,2.20
2023-11-30T20:11:14.527Z,2.20
2023-11-30T20:13:42.915Z,2.30
2023-11-30T20:16:12.203Z,2.20
2023-11-30T20:18:39.291Z,2.20
2023-11-30T20:21:07.367Z,2.20
2023-11-30T20:23:34.528Z,2.30
2023-11-30T20:26:01.909Z,2.30
2023-11-30T20:28:28.754Z,2.30
2023-11-30T20:30:55.906Z,2.40
2023-11-30T20:33:23.145Z,2.40
2023-11-30T20:35:50.187Z,2.50
2023-11-30T20:38:16.977Z,2.50
2023-11-30T20:40:44.430Z,2.50
2023-11-30T20:43:11.299Z,2.50
2023-11-30T20:45:38.656Z,2.50
2023-11-30T20:48:06.968Z,2.60
2023-11-30T20:50:34.027Z,2.70
2023-11-30T20:53:01.885Z,2.70
2023-11-30T20:55:28.997Z,2.60
2023-11-30T20:57:55.937Z,2.60
2023-11-30T21:00:23.100Z,2.70
2023-11-30T21:02:50.407Z,2.70
2023-11-30T21:05:19.310Z,2.80
2023-11-30T21:07:46.585Z,2.70
2023-11-30T21:10:15.471Z,2.80
2023-11-30T21:12:43.013Z,2.70
2023-11-30T21:15:10.432Z,2.70
2023-11-30T21:17:37.276Z,2.80
2023-11-30T21:20:05.006Z,2.80
2023-11-30T21:22:32.833Z,2.90
2023-11-30T21:25:00.009Z,2.90
2023-11-30T21:27:27.139Z,3.00
2023-11-30T21:29:55.501Z,3.00
2023-11-30T21:32:22.475Z,3.00
2023-11-30T21:34:49.861Z,3.00
2023-11-30T21:37:17.100Z,3.00
2023-11-30T21:39:44.183Z,3.00
2023-11-30T21:42:11.853Z,3.00
2023-11-30T21:44:40.339Z,3.00
2023-11-30T21:47:11.698Z,3.00
2023-11-30T21:49:40.779Z,3.00
2023-11-30T21:52:08.182Z,2.90
2023-11-30T21:54:35.398Z,2.90
2023-11-30T21:57:02.307Z,2.90
2023-11-30T21:59:29.274Z,2.90
2023-11-30T22:01:56.451Z,3.10
2023-11-30T22:04:23.558Z,3.10
2023-11-30T22:06:50.556Z,3.10
2023-11-30T22:09:18.332Z,3.20
2023-11-30T22:11:46.361Z,3.20
2023-11-30T22:14:13.475Z,3.20
2023-11-30T22:16:41.685Z,3.20
2023-11-30T22:19:08.830Z,3.20
2023-11-30T22:21:36.135Z,3.30
2023-11-30T22:24:02.936Z,3.20
2023-11-30T22:26:30.032Z,3.30
2023-11-30T22:28:57.324Z,3.40
2023-11-30T22:31:24.774Z,3.30
2023-11-30T22:33:52.277Z,3.20
2023-11-30T22:36:19.173Z,3.30
2023-11-30T22:38:46.585Z,3.30
2023-11-30T22:41:14.812Z,3.30
2023-11-30T22:43:41.997Z,3.30
2023-11-30T22:46:18.046Z,3.40
2023-11-30T22:48:50.351Z,3.30
2023-11-30T22:51:18.192Z,3.30
2023-11-30T22:53:45.358Z,3.30
2023-11-30T22:56:20.410Z,3.30
2023-11-30T22:58:48.332Z,3.30
2023-11-30T23:01:16.778Z,3.30
2023-11-30T23:03:46.083Z,3.40
2023-11-30T23:06:16.438Z,3.30
2023-11-30T23:08:46.729Z,3.30
2023-11-30T23:11:13.647Z,3.30
2023-11-30T23:13:41.309Z,3.30
2023-11-30T23:16:09.650Z,3.20
2023-11-30T23:18:36.725Z,3.30
2023-11-30T23:21:04.324Z,3.30
2023-11-30T23:23:31.570Z,3.30
2023-11-30T23:25:58.620Z,3.30
2023-11-30T23:28:25.684Z,3.30
2023-11-30T23:30:53.059Z,3.30
2023-11-30T23:33:19.922Z,3.30
2023-11-30T23:35:46.850Z,3.40
2023-11-30T23:38:13.753Z,3.40
2023-11-30T23:40:40.501Z,3.40
2023-11-30T23:46:13.158Z,3.50
2023-11-30T23:48:39.951Z,3.50
2023-11-30T23:51:07.263Z,3.50
2023-11-30T23:53:34.088Z,3.50
2023-11-30T23:56:00.826Z,3.60
2023-11-30T23:58:27.654Z,3.50
